createdAt,value
2018-12-20T00:02:15.487Z,72.97
2018-12-20T00:05:20.112Z,70.47
2018-12-20T00:08:24.732Z,70.90
2018-12-20T00:11:29.623Z,75.50
2018-12-20T00:14:34.211Z,75.60
2018-12-20T00:17:43.991Z,72.23
2018-12-20T00:20:48.861Z,72.60
2018-12-20T00:23:53.640Z,70.90
2018-12-20T00:26:58.429Z,73.13
2018-12-20T00:30:03.320Z,74.93
2018-12-20T00:33:08.138Z,76.73
2018-12-20T00:36:12.936Z,73.60
2018-12-20T00:39:17.669Z,78.17
2018-12-20T00:42:22.416Z,80.60
2018-12-20T00:45:26.998Z,97.40
2018-12-20T00:48:31.697Z,70.13
2018-12-20T00:51:36.339Z,81.17
2018-12-20T00:54:41.109Z,74.30
2018-12-20T00:57:45.728Z,82.40
2018-12-20T01:00:50.210Z,103.53
2018-12-20T01:03:54.696Z,103.03
2018-12-20T01:06:59.230Z,150.50
2018-12-20T01:10:04.384Z,154.97
2018-12-20T01:13:09.061Z,160.60
2018-12-20T01:16:14.205Z,198.17
2018-12-20T01:19:18.893Z,138.93
2018-12-20T01:22:23.844Z,137.07
2018-12-20T01:25:28.534Z,135.80
2018-12-20T01:28:33.159Z,105.23
2018-12-20T01:31:38.899Z,112.37
2018-12-20T01:34:43.619Z,156.50
2018-12-20T01:37:48.255Z,129.83
2018-12-20T01:40:53.391Z,204.57
2018-12-20T01:43:57.971Z,200.30
2018-12-20T01:47:02.813Z,132.07
2018-12-20T01:50:08.550Z,247.90
2018-12-20T01:53:13.301Z,181.57
2018-12-20T01:56:18.144Z,156.23
2018-12-20T01:59:22.793Z,165.40
2018-12-20T02:02:27.413Z,116.23
2018-12-20T02:05:32.084Z,172.43
2018-12-20T02:08:38.066Z,147.63
2018-12-20T02:11:42.717Z,186.13
2018-12-20T02:14:47.478Z,83.97
2018-12-20T02:17:52.103Z,110.93
2018-12-20T02:20:56.707Z,89.90
2018-12-20T02:24:01.314Z,162.47
2018-12-20T02:27:06.037Z,152.53
2018-12-20T02:30:12.367Z,110.20
2018-12-20T02:33:17.158Z,133.50
2018-12-20T02:36:21.919Z,108.43
2018-12-20T02:39:26.693Z,128.97
2018-12-20T02:42:31.433Z,167.83
2018-12-20T02:45:35.993Z,260.93
2018-12-20T02:48:40.834Z,177.83
2018-12-20T02:51:45.592Z,206.50
2018-12-20T02:54:50.450Z,253.23
2018-12-20T02:57:55.143Z,281.40
2018-12-20T03:01:00.075Z,171.50
2018-12-20T03:04:04.939Z,239.10
2018-12-20T03:07:09.627Z,276.70
2018-12-20T03:10:14.379Z,362.33
2018-12-20T03:13:19.109Z,207.73
2018-12-20T03:16:23.688Z,186.17
2018-12-20T03:19:28.306Z,221.57
2018-12-20T03:22:32.772Z,246.17
2018-12-20T03:25:37.443Z,156.60
2018-12-20T03:28:42.137Z,204.47
2018-12-20T03:31:46.822Z,227.97
2018-12-20T03:34:51.463Z,140.00
2018-12-20T03:37:56.066Z,224.47
2018-12-20T03:41:00.729Z,154.77
2018-12-20T03:44:05.385Z,210.40
2018-12-20T03:47:10.079Z,231.97
2018-12-20T03:50:14.637Z,206.53
2018-12-20T03:53:19.403Z,97.17
2018-12-20T03:56:24.380Z,121.67
2018-12-20T03:59:29.031Z,106.83
2018-12-20T04:02:33.635Z,226.90
2018-12-20T04:05:38.237Z,149.53
2018-12-20T04:08:42.860Z,167.57
2018-12-20T04:11:47.464Z,110.13
2018-12-20T04:14:52.053Z,110.10
2018-12-20T04:17:56.566Z,161.53
2018-12-20T04:21:01.147Z,145.63
2018-12-20T04:24:05.866Z,207.23
2018-12-20T04:27:10.913Z,140.53
2018-12-20T04:30:15.684Z,163.30
2018-12-20T04:33:20.533Z,152.10
2018-12-20T04:36:25.203Z,136.43
2018-12-20T04:39:29.900Z,173.73
2018-12-20T04:42:34.493Z,100.37
2018-12-20T04:45:46.438Z,136.17
2018-12-20T04:48:45.668Z,180.23
2018-12-20T04:51:50.492Z,87.33
2018-12-20T04:54:55.257Z,120.53
2018-12-20T04:57:59.919Z,113.30
2018-12-20T05:01:05.011Z,129.60
2018-12-20T05:04:09.962Z,106.63
2018-12-20T05:07:14.760Z,94.57
2018-12-20T05:10:19.829Z,86.37
2018-12-20T05:13:24.659Z,87.47
2018-12-20T05:16:29.370Z,73.23
2018-12-20T05:19:33.995Z,75.50
2018-12-20T05:22:38.603Z,66.90
2018-12-20T05:25:43.265Z,64.63
2018-12-20T05:28:47.922Z,59.33
2018-12-20T05:31:52.574Z,105.63
2018-12-20T05:34:57.238Z,97.33
2018-12-20T05:38:01.864Z,95.03
2018-12-20T05:41:06.405Z,104.30
2018-12-20T05:44:11.027Z,69.67
2018-12-20T05:50:30.817Z,59.47
2018-12-20T05:53:35.378Z,55.47
2018-12-20T05:56:39.951Z,55.30
2018-12-20T05:59:44.728Z,57.93
2018-12-20T06:02:49.576Z,49.83
2018-12-20T06:05:54.454Z,44.40
2018-12-20T06:08:59.115Z,48.13
2018-12-20T06:12:03.726Z,48.97
2018-12-20T06:15:09.266Z,53.47
2018-12-20T06:18:13.941Z,46.50
2018-12-20T06:21:18.672Z,40.63
2018-12-20T06:24:23.500Z,42.27
2018-12-20T06:27:28.077Z,43.27
2018-12-20T06:30:32.609Z,42.67
2018-12-20T06:33:37.300Z,37.20
2018-12-20T06:36:41.914Z,35.27
2018-12-20T06:39:46.615Z,32.07
2018-12-20T06:42:51.173Z,30.10
2018-12-20T06:45:55.770Z,27.57
2018-12-20T06:49:00.307Z,38.77
2018-12-20T06:52:04.828Z,34.20
2018-12-20T06:55:09.504Z,30.83
2018-12-20T06:58:14.068Z,34.40
2018-12-20T07:01:18.704Z,37.10
2018-12-20T07:04:23.271Z,36.13
2018-12-20T07:07:27.832Z,33.90
2018-12-20T07:10:33.968Z,37.93
2018-12-20T07:13:38.452Z,39.00
2018-12-20T07:16:43.304Z,39.77
2018-12-20T07:19:47.786Z,37.53
2018-12-20T07:22:52.431Z,38.20
2018-12-20T07:25:57.022Z,37.80
2018-12-20T07:29:01.518Z,35.40
2018-12-20T07:32:06.140Z,35.60
2018-12-20T07:35:10.758Z,35.90
2018-12-20T07:38:15.284Z,37.27
2018-12-20T07:41:19.744Z,34.90
2018-12-20T07:44:24.220Z,39.43
2018-12-20T07:47:28.981Z,43.33
2018-12-20T07:50:33.512Z,30.40
2018-12-20T07:53:38.081Z,30.77
2018-12-20T07:56:42.571Z,32.63
2018-12-20T07:59:47.190Z,32.53
2018-12-20T08:02:51.729Z,30.27
2018-12-20T08:05:56.320Z,28.43
2018-12-20T08:09:01.055Z,30.70
2018-12-20T08:12:05.611Z,29.60
2018-12-20T08:15:10.245Z,28.50
2018-12-20T08:18:17.950Z,28.50
2018-12-20T08:21:22.520Z,28.87
2018-12-20T08:24:27.058Z,28.20
2018-12-20T08:27:31.611Z,30.37
2018-12-20T08:30:36.272Z,26.77
2018-12-20T08:33:40.955Z,27.20
2018-12-20T08:36:48.734Z,33.30
2018-12-20T08:39:53.332Z,27.13
2018-12-20T08:42:57.911Z,30.10
2018-12-20T08:46:02.442Z,32.33
2018-12-20T08:49:06.909Z,33.07
2018-12-20T08:52:11.462Z,39.77
2018-12-20T08:55:16.016Z,43.27
2018-12-20T08:58:20.730Z,33.20
2018-12-20T09:01:25.409Z,139.87
2018-12-20T09:04:29.979Z,68.47
2018-12-20T09:07:34.487Z,44.37
2018-12-20T09:10:39.072Z,34.40
2018-12-20T09:13:43.544Z,42.03
2018-12-20T09:16:48.286Z,32.97
2018-12-20T09:19:52.814Z,27.17
2018-12-20T09:22:57.600Z,28.03
2018-12-20T09:26:02.356Z,26.70
2018-12-20T09:29:06.830Z,26.93
2018-12-20T09:32:11.440Z,28.90
2018-12-20T09:35:16.065Z,28.60
2018-12-20T09:38:20.670Z,27.17
2018-12-20T09:41:25.227Z,24.40
2018-12-20T09:44:29.773Z,25.37
2018-12-20T09:47:40.092Z,48.33
2018-12-20T09:50:44.678Z,31.33
2018-12-20T09:53:49.428Z,30.00
2018-12-20T09:56:53.998Z,28.03
2018-12-20T09:59:58.689Z,27.60
2018-12-20T10:03:03.488Z,27.10
2018-12-20T10:06:08.215Z,26.20
2018-12-20T10:09:12.862Z,22.27
2018-12-20T10:12:17.389Z,20.90
2018-12-20T10:15:21.994Z,22.30
2018-12-20T10:18:26.791Z,25.30
2018-12-20T10:24:45.641Z,29.80
2018-12-20T10:27:50.198Z,32.10
2018-12-20T10:30:54.681Z,26.40
2018-12-20T10:33:59.288Z,28.27
2018-12-20T10:37:03.859Z,26.87
2018-12-20T10:40:08.635Z,34.57
2018-12-20T10:43:13.216Z,29.03
2018-12-20T10:46:17.683Z,24.00
2018-12-20T10:49:22.248Z,30.83
2018-12-20T10:52:26.833Z,34.87
2018-12-20T10:55:31.312Z,26.50
2018-12-20T10:58:35.832Z,27.73
2018-12-20T11:01:47.146Z,27.53
2018-12-20T11:04:57.056Z,26.17
2018-12-20T11:08:22.820Z,24.70
2018-12-20T11:11:31.706Z,26.73
2018-12-20T11:14:36.389Z,28.03
2018-12-20T11:17:40.987Z,28.00
2018-12-20T11:20:45.541Z,28.13
2018-12-20T11:23:50.256Z,25.73
2018-12-20T11:26:54.722Z,26.00
2018-12-20T11:29:59.464Z,26.87
2018-12-20T11:33:04.163Z,34.60
2018-12-20T11:36:08.869Z,32.47
2018-12-20T11:39:13.393Z,29.20
2018-12-20T11:42:17.883Z,64.70
2018-12-20T11:45:22.438Z,53.67
2018-12-20T11:48:26.921Z,22.33
2018-12-20T11:51:31.965Z,21.90
2018-12-20T11:54:37.282Z,31.37
2018-12-20T11:57:41.810Z,25.80
2018-12-20T12:00:46.306Z,19.80
2018-12-20T12:03:57.346Z,23.57
2018-12-20T12:06:57.517Z,32.53
2018-12-20T12:10:02.073Z,7.63
2018-12-20T12:13:06.752Z,3.37
2018-12-20T12:16:11.590Z,6.00
2018-12-20T12:19:16.242Z,4.60
2018-12-20T12:22:21.513Z,5.00
2018-12-20T12:25:26.188Z,6.13
2018-12-20T12:28:30.876Z,4.77
2018-12-20T12:31:35.632Z,4.63
2018-12-20T12:34:40.476Z,5.50
2018-12-20T12:37:45.049Z,3.10
2018-12-20T12:40:49.746Z,4.80
2018-12-20T12:43:54.481Z,6.43
2018-12-20T12:46:58.995Z,5.70
2018-12-20T12:50:03.863Z,4.03
2018-12-20T12:53:08.762Z,3.27
2018-12-20T12:56:13.295Z,4.00
2018-12-20T12:59:18.198Z,2.70
2018-12-20T13:02:22.926Z,3.70
2018-12-20T13:05:27.568Z,2.00
2018-12-20T13:08:32.089Z,3.77
2018-12-20T13:11:36.573Z,3.77
2018-12-20T13:14:41.918Z,2.23
2018-12-20T13:17:46.581Z,5.93
2018-12-20T13:20:51.118Z,4.30
2018-12-20T13:23:55.597Z,5.27
2018-12-20T13:27:00.963Z,2.23
2018-12-20T13:30:09.358Z,1.73
2018-12-20T13:33:14.002Z,2.40
2018-12-20T13:36:19.502Z,1.67
2018-12-20T13:39:24.052Z,1.57
2018-12-20T13:42:28.745Z,6.33
2018-12-20T13:45:33.347Z,1.97
2018-12-20T13:48:38.022Z,6.20
2018-12-20T13:51:42.520Z,10.47
2018-12-20T13:54:47.163Z,8.83
2018-12-20T13:57:51.743Z,2.27
2018-12-20T14:00:56.338Z,2.53
2018-12-20T14:04:00.869Z,4.77
2018-12-20T14:07:05.904Z,4.40
2018-12-20T14:10:10.797Z,2.97
2018-12-20T14:13:15.393Z,2.67
2018-12-20T14:16:19.918Z,2.17
2018-12-20T14:19:24.998Z,2.87
2018-12-20T14:22:29.717Z,4.87
2018-12-20T14:25:34.228Z,3.07
2018-12-20T14:28:39.644Z,2.87
2018-12-20T14:31:44.461Z,5.97
2018-12-20T14:34:49.180Z,3.50
2018-12-20T14:37:53.859Z,5.70
2018-12-20T14:40:58.447Z,8.03
2018-12-20T14:44:03.261Z,5.70
2018-12-20T14:47:08.484Z,6.53
2018-12-20T14:50:13.083Z,4.43
2018-12-20T14:53:19.385Z,5.10
2018-12-20T14:56:24.075Z,4.80
2018-12-20T14:59:28.588Z,6.83
2018-12-20T15:02:33.182Z,9.00
2018-12-20T15:05:37.749Z,3.83
2018-12-20T15:08:42.314Z,3.57
2018-12-20T15:11:46.795Z,3.97
2018-12-20T15:14:51.319Z,4.83
2018-12-20T15:17:55.775Z,2.20
2018-12-20T15:21:00.295Z,2.43
2018-12-20T15:24:04.977Z,6.20
2018-12-20T15:27:09.618Z,6.13
2018-12-20T15:30:14.224Z,8.33
2018-12-20T15:33:23.099Z,5.13
2018-12-20T15:36:27.673Z,5.53
2018-12-20T15:39:32.159Z,3.63
2018-12-20T15:42:36.774Z,3.50
2018-12-20T15:45:41.429Z,5.97
2018-12-20T15:48:45.880Z,5.37
2018-12-20T15:51:50.373Z,7.03
2018-12-20T15:54:54.809Z,6.03
2018-12-20T15:57:59.349Z,6.33
2018-12-20T16:01:03.993Z,7.73
2018-12-20T16:04:08.554Z,12.50
2018-12-20T16:07:13.258Z,6.90
2018-12-20T16:10:17.891Z,6.40
2018-12-20T16:13:22.445Z,8.67
2018-12-20T16:16:27.043Z,10.63
2018-12-20T16:19:31.645Z,7.77
2018-12-20T16:22:36.130Z,5.10
2018-12-20T16:25:40.892Z,3.80
2018-12-20T16:28:45.389Z,3.23
2018-12-20T16:31:49.930Z,6.90
2018-12-20T16:34:54.509Z,4.67
2018-12-20T16:37:59.121Z,5.37
2018-12-20T16:41:03.781Z,4.10
2018-12-20T16:44:08.592Z,9.23
2018-12-20T16:47:13.279Z,8.00
2018-12-20T16:50:17.920Z,5.07
2018-12-20T16:53:22.597Z,8.53
2018-12-20T16:56:27.138Z,8.47
2018-12-20T16:59:31.628Z,11.87
2018-12-20T17:02:36.298Z,15.27
2018-12-20T17:05:40.910Z,36.90
2018-12-20T17:08:48.408Z,99.83
2018-12-20T17:11:52.427Z,26.27
2018-12-20T17:14:57.055Z,11.17
2018-12-20T17:18:01.639Z,16.63
2018-12-20T17:21:06.296Z,17.23
2018-12-20T17:24:10.916Z,20.03
2018-12-20T17:27:15.428Z,19.63
2018-12-20T17:30:20.132Z,20.10
2018-12-20T17:33:24.991Z,42.17
2018-12-20T17:36:29.663Z,13.57
2018-12-20T17:39:34.277Z,22.40
2018-12-20T17:42:38.922Z,32.77
2018-12-20T17:45:43.567Z,18.60
2018-12-20T17:48:48.308Z,28.80
2018-12-20T17:51:52.944Z,34.23
2018-12-20T17:54:57.448Z,24.57
2018-12-20T17:58:02.053Z,28.53
2018-12-20T18:01:06.893Z,14.83
2018-12-20T18:04:11.474Z,41.07
2018-12-20T18:07:16.195Z,8.17
2018-12-20T18:10:20.969Z,12.77
2018-12-20T18:13:25.700Z,13.20
2018-12-20T18:16:30.429Z,12.03
2018-12-20T18:19:38.952Z,7.57
2018-12-20T18:22:41.677Z,9.03
2018-12-20T18:25:46.369Z,20.47
2018-12-20T18:28:50.955Z,19.20
2018-12-20T18:31:55.466Z,12.03
2018-12-20T18:35:00.066Z,8.13
2018-12-20T18:38:04.594Z,7.50
2018-12-20T18:41:09.199Z,8.03
2018-12-20T18:44:13.744Z,14.07
2018-12-20T18:47:18.291Z,10.83
2018-12-20T18:50:22.942Z,6.40
2018-12-20T18:53:27.557Z,5.73
2018-12-20T18:56:32.304Z,8.47
2018-12-20T18:59:36.918Z,5.17
2018-12-20T19:02:41.554Z,5.83
2018-12-20T19:05:46.146Z,15.23
2018-12-20T19:12:04.689Z,10.63
2018-12-20T19:15:10.447Z,4.93
2018-12-20T19:18:15.817Z,6.30
2018-12-20T19:21:20.574Z,10.20
2018-12-20T19:24:25.218Z,7.10
2018-12-20T19:27:29.832Z,9.40
2018-12-20T19:30:34.457Z,9.83
2018-12-20T19:33:39.119Z,5.33
2018-12-20T19:36:43.778Z,6.17
2018-12-20T19:43:08.793Z,6.00
2018-12-20T19:46:13.343Z,6.00
2018-12-20T19:49:17.838Z,3.73
2018-12-20T19:52:22.408Z,5.17
2018-12-20T19:55:26.925Z,3.40
2018-12-20T19:58:31.442Z,6.97
2018-12-20T20:01:35.889Z,6.27
2018-12-20T20:04:40.410Z,8.10
2018-12-20T20:07:45.021Z,35.43
2018-12-20T20:10:49.626Z,10.57
2018-12-20T20:13:54.086Z,5.20
2018-12-20T20:16:58.681Z,5.33
2018-12-20T20:20:03.948Z,9.90
2018-12-20T20:23:08.758Z,8.07
2018-12-20T20:26:13.314Z,5.67
2018-12-20T20:29:17.870Z,8.20
2018-12-20T20:32:22.523Z,7.40
2018-12-20T20:35:27.040Z,9.43
2018-12-20T20:38:31.602Z,5.67
2018-12-20T20:41:36.116Z,3.30
2018-12-20T20:44:40.724Z,4.87
2018-12-20T20:47:45.263Z,5.03
2018-12-20T20:50:50.072Z,18.70
2018-12-20T20:53:54.637Z,7.23
2018-12-20T20:56:59.147Z,5.43
2018-12-20T21:00:04.377Z,21.33
2018-12-20T21:03:09.020Z,7.53
2018-12-20T21:06:13.574Z,5.77
2018-12-20T21:09:18.320Z,7.33
2018-12-20T21:12:23.337Z,84.47
2018-12-20T21:15:28.155Z,6.90
2018-12-20T21:18:32.974Z,7.53
2018-12-20T21:21:37.674Z,4.80
2018-12-20T21:24:42.270Z,45.43
2018-12-20T21:27:46.819Z,23.77
2018-12-20T21:30:51.335Z,26.77
2018-12-20T21:33:55.991Z,4.00
2018-12-20T21:37:00.619Z,9.37
2018-12-20T21:40:06.177Z,26.47
2018-12-20T21:43:10.866Z,25.00
2018-12-20T21:46:15.615Z,14.00
2018-12-20T21:49:20.260Z,12.43
2018-12-20T21:52:24.911Z,8.13
2018-12-20T21:55:29.496Z,15.37
2018-12-20T21:58:34.157Z,21.17
2018-12-20T22:01:38.922Z,16.80
2018-12-20T22:04:43.666Z,15.07
2018-12-20T22:07:48.192Z,10.33
2018-12-20T22:10:52.745Z,13.00
2018-12-20T22:13:57.270Z,11.27
2018-12-20T22:17:01.867Z,13.30
2018-12-20T22:20:07.575Z,7.90
2018-12-20T22:23:12.135Z,6.23
2018-12-20T22:26:16.713Z,6.27
2018-12-20T22:29:21.923Z,3.13
2018-12-20T22:32:26.500Z,3.30
2018-12-20T22:35:30.976Z,4.87
2018-12-20T22:38:35.553Z,5.00
2018-12-20T22:41:40.137Z,4.40
2018-12-20T22:44:44.702Z,3.40
2018-12-20T22:47:49.458Z,4.93
2018-12-20T22:50:56.025Z,6.60
2018-12-20T22:54:00.894Z,3.63
2018-12-20T22:57:05.313Z,7.20
2018-12-20T23:00:12.312Z,4.27
2018-12-20T23:03:16.946Z,6.53
2018-12-20T23:06:21.504Z,3.40
2018-12-20T23:09:26.006Z,4.97
2018-12-20T23:12:30.637Z,3.43
2018-12-20T23:15:35.201Z,3.23
2018-12-20T23:18:39.815Z,4.10
2018-12-20T23:21:44.337Z,3.07
2018-12-20T23:24:48.858Z,5.00
2018-12-20T23:27:53.347Z,3.53
2018-12-20T23:30:57.949Z,5.70
2018-12-20T23:34:02.452Z,2.27
2018-12-20T23:37:07.212Z,3.17
2018-12-20T23:40:12.529Z,5.50
2018-12-20T23:43:17.075Z,4.47
2018-12-20T23:46:21.724Z,6.80
2018-12-20T23:49:26.330Z,6.17
2018-12-20T23:52:30.866Z,4.77
2018-12-20T23:55:35.471Z,2.67
2018-12-20T23:58:40.029Z,4.83
